Für Piloten

Informationen für Piloten zum Flugplatz Borken-Hoxfeld
Hier findest Du alle relevanten Informationen, die Du als Pilot benötigst, um Borken-Hoxfeld anzufliegen.

Flugplatz: Borken-Hoxfeld ICAO-Code: EDLY
Borken-Hoxfeld Info: 122,925 Mhz
GAFOR Gebiet: 32
Platzrunde: Motorflug; -> Südplatzrunde; Segelflug; -> Nordplatzrunde;
Landegebühr: z.Zt. 5,00 Euro
Platzhöhe: 48m üMSL
Pisten: 12/30 – 740 m x 30 m, GRAS
Betriebszeiten: PPR (in den Sommermonaten Mittagspause beachten)

 

Wetterforecast:

Available data for EDDL from the past 2 hours
DUESSELDORF
Metar
EDDL 161550Z 10004KT 070V190 CAVOK 09/03 Q1028 NOSIG

15:50 UTC

Wind: 100° 4kt

Visibility:

Sky:

Temp: 9 deg C / 48.2 deg F

Dewpoint: 3 deg C / 37.4 deg F

Pressure: 1028 hPa

TAF
TAF EDDL 161100Z 1612/1718 14010KT CAVOK BECMG 1614/1617 10005KT BECMG 1708/1711 08010KT

Alle obigen Informationen ersetzen nicht die vorgeschriebene, persönliche Flugvorbereitung.